^^
Meteo Knjazevac Station Historical Data
Daily Summary for February 7, 2021 Units:  English    Metric   Both
Daily Weekly Monthly Yearly Custom
  High: Low: Average:
Temperature: 51.8 °F 49.1 °F 50.4 °F
Dew Point: 45 °F 43.6 °F 44.3 °F
Humidity: 83% 76% 80%
Wind Speed: 3mph 0mph 0.8mph
Wind Gust: 6mph - -
Wind- - East
Pressure: 30.01 in 29.99 in -
Precipitation: 0.00 in    
Historical Graphs
 
 
Tabular Data for February 7, 2021
Time Temperature Dew Point Pressure Wind Wind Speed Wind Gust Humidity Rainfall Rate (Hourly) solar Conditions
00:00 51.8 °F 44.8 °F 30.01 in Calm   2 mph 77% 0.00 in 0 W/m2
00:10 51.6 °F 45 °F 30.00 in Calm   2 mph 78% 0.00 in 0 W/m2
00:20 51.4 °F 44.7 °F 30.01 in North 1 mph 2 mph 78% 0.00 in 0 W/m2
00:30 51.1 °F 44.5 °F 30.01 in Calm   2 mph 78% 0.00 in 0 W/m2
00:40 50.7 °F 44.4 °F 30.01 in Calm   2 mph 79% 0.00 in 0 W/m2
00:50 50.2 °F 43.9 °F 30.01 in Calm   3 mph 79% 0.00 in 0 W/m2
01:00 49.8 °F 43.9 °F 30.01 in NNW 1 mph 2 mph 80% 0.00 in 0 W/m2
01:10 49.8 °F 43.9 °F 30.00 in Calm   2 mph 80% 0.00 in 0 W/m2
01:20 49.8 °F 44.2 °F 30.00 in Calm   2 mph 81% 0.00 in 0 W/m2
01:30 49.5 °F 43.9 °F 30.00 in Calm   3 mph 81% 0.00 in 0 W/m2
01:40 49.3 °F 43.7 °F 30.00 in North 1 mph 3 mph 81% 0.00 in 0 W/m2
01:50 49.2 °F 43.6 °F 30.00 in Calm   3 mph 81% 0.00 in 0 W/m2
02:10 49.2 °F 44.2 °F 30.00 in NNE 3 mph 6 mph 83% 0.00 in 0 W/m2
02:20 49.5 °F 44.5 °F 30.00 in Calm   6 mph 83% 0.00 in 0 W/m2
02:30 49.1 °F 43.8 °F 30.00 in NNE 2 mph 6 mph 82% 0.00 in 0 W/m2
02:40 49.3 °F 44.4 °F 29.99 in NNE 2 mph 5 mph 83% 0.00 in 0 W/m2
02:50 49.5 °F 44.2 °F 30.00 in North 1 mph 3 mph 82% 0.00 in 0 W/m2
03:00 49.8 °F 44.2 °F 29.99 in NNE 2 mph 5 mph 81% 0.00 in 0 W/m2
05:10 51.8 °F 44.5 °F 29.99 in NNE 1 mph 5 mph 76% 0.00 in 0 W/m2
05:20 51.4 °F 44.5 °F 30.00 in NNE 1 mph 5 mph 77% 0.00 in 3 W/m2
05:30 51.3 °F 44.6 °F 30.00 in NNE 2 mph 3 mph 78% 0.00 in 9 W/m2
05:40 51.3 °F 44.3 °F 30.00 in ENE 1 mph 2 mph 77% 0.00 in 18 W/m2
05:50 51.3 °F 44.6 °F 30.00 in NNW 1 mph 2 mph 78% 0.00 in 30 W/m2
06:00 51.4 °F 44.7 °F 30.00 in NNE 1 mph 3 mph 78% 0.00 in 43 W/m2
06:10 51.6 °F 45 °F 30.00 in Calm   5 mph 78% 0.00 in 56 W/m2
Knjazevac, Serbia
Compliments of Weather Underground - 2 mb